Aérodrome :
LOGIN :

S'inscrire | Disclaimer

   EN    FR    IT 

 










Légende :    VFR   VFR Marginal   IFR   IFR Intensif   IFR Très Intensif
Visi : 
Plafond : 
>= 8 km
>= 3000ft
5 à 8 km
1000 à 3000 ft
1500m à 5 km
500 à 1000 ft
800 à 1500m
200 à 500 ft
< 800m
< 200 ft
Symboles :   Orages  Brouillard  Fortes neiges  Fortes précipitations  Vent > 20 kt
SIGMETs :   Divers  Orages  Givrage  Turbulence  Onde Orograph.  Cendres Volcan.







- Altitude de l'aérodrome : 313 ft
- Code IATA : LEH
- Voir les cartes d'approche


LFOH - Le Havre Octeville

DERNIER METAR :
  • 230000Z AUTO 27010KT 240V300 8000 FEW010 SCT014 BKN020 12/11 Q1021

METARs EXPIRÉS :
  • 222330Z AUTO 27016KT 9999 -RA FEW016 SCT024 BKN030 12/09 Q1021
  • 222300Z AUTO 26016KT 9999 FEW012 BKN028 OVC060 12/09 Q1021
  • 222230Z AUTO 28016KT 240V310 9999 BKN024 BKN030 OVC052 13/09 Q1021
  • 222200Z AUTO 29016KT 240V320 9999 SCT026 OVC054 13/09 Q1021
  • 222130Z AUTO 28019KT 250V310 9999 FEW022 BKN028 BKN034 13/09 Q1021

TAF AMD TAF LFOH
Valide du 22 à 14h jusqu'au 23 à 12h UTC


221428Z 2214/2312 28020G35KT 9999 SCT035
TEMPO 2214/2217 3000 SHRA BKN020CB
TEMPO 2217/2304 4000 SHRA
BECMG 2304/2306 23012KT RA OVC012
TEMPO 2306/2311 OVC007
ATIS : +33 2 35 54 64 93
Pas de NOTAMs connus pour ce terrain.
1 SIGMET publié pour la FIR Paris (LFFF) :
 
Turbulence forte
LFFF SIGMET 6 VALID 222300/230300 LFPW
LFFF PARIS FIR/UIR SEV TURB FCST E OF LINE N5045 E00315 - N4745 E00445 FL220/320 MOV E 15KT NC=



MET'MAP, la Météo Aéronautique d'un coup d'oeil ! - Copyright ORBIFLY Décembre 2007 - Disclaimer

ORBIFLY MET'MAP TEAM :

Programmation & Développement : Alexandra Zaïnal
Conception & Développement : Baudouin d'Aumeries
Co-Programmation & Développement : Marc-Olivier Méhu
Soutien technique & logistique : Manuel Goepfert

Contact : metmap@orbifly.com




SOURCES & CREDITS :

   NOAA